Terminal Aerodrome Forecast
Issued by NWS Bismarck, ND

Home | Current Version | Previous Version | Text Only | Print | Product List | Glossary On
Versions: 1 2 3 4 5 6 7 8 9 10 11 12 13
481
FTUS43 KBIS 221737
TAFBIS
TAF
KBIS 221737Z 2218/2318 21012KT P6SM FEW080 FEW250
     FM230100 VRB05KT P6SM FEW080 SCT150
     FM230800 00000KT P6SM FEW100 SCT250
     FM231500 02009KT P6SM BKN100=

USA.gov is the U.S. government's official web portal to all federal, state and local government web resources and services.